createdAt,value
2022-09-17T00:00:43.229Z,97673.20
2022-09-17T00:03:56.071Z,97687.00
2022-09-17T00:07:04.512Z,97690.80
2022-09-17T00:10:13.959Z,97697.40
2022-09-17T00:13:21.975Z,97687.40
2022-09-17T00:16:33.286Z,97685.00
2022-09-17T00:19:42.345Z,97677.80
2022-09-17T00:22:50.643Z,97670.20
2022-09-17T00:25:59.168Z,97660.40
2022-09-17T00:29:07.690Z,97656.80
2022-09-17T00:32:15.790Z,97649.00
2022-09-17T00:35:23.880Z,97641.20
2022-09-17T00:38:32.120Z,97635.60
2022-09-17T00:41:42.780Z,97628.60
2022-09-17T00:44:55.603Z,97626.60
2022-09-17T00:48:06.864Z,97621.40
2022-09-17T00:51:20.635Z,97619.40
2022-09-17T00:54:29.180Z,97628.40
2022-09-17T00:57:38.005Z,97621.00
2022-09-17T01:00:47.422Z,97617.60
2022-09-17T01:03:55.612Z,97617.60
2022-09-17T01:07:13.449Z,97613.80
2022-09-17T01:10:48.789Z,97620.00
2022-09-17T01:14:18.888Z,97621.80
2022-09-17T01:17:36.683Z,97620.00
2022-09-17T01:21:38.812Z,97609.60
2022-09-17T01:25:13.593Z,97617.00
2022-09-17T01:28:40.851Z,97634.60
2022-09-17T01:31:55.832Z,97638.20
2022-09-17T01:35:17.048Z,97637.60
2022-09-17T01:38:35.691Z,97633.00
2022-09-17T01:41:52.313Z,97645.60
2022-09-17T01:45:10.556Z,97641.40
2022-09-17T01:48:22.199Z,97639.00
2022-09-17T01:51:38.267Z,97642.20
2022-09-17T01:54:52.325Z,97641.20
2022-09-17T01:58:07.647Z,97642.40
2022-09-17T02:01:21.853Z,97633.00
2022-09-17T02:04:35.141Z,97629.00
2022-09-17T02:07:52.020Z,97627.20
2022-09-17T02:11:09.215Z,97626.20
2022-09-17T02:14:24.547Z,97625.20
2022-09-17T02:17:40.460Z,97626.20
2022-09-17T02:20:55.762Z,97616.20
2022-09-17T02:24:12.987Z,97609.00
2022-09-17T02:27:32.640Z,97603.80
2022-09-17T02:30:41.172Z,97603.40
2022-09-17T02:33:56.638Z,97609.20
2022-09-17T02:37:05.573Z,97595.40
2022-09-17T02:40:17.236Z,97592.40
2022-09-17T02:43:39.907Z,97588.40
2022-09-17T02:47:16.607Z,97574.80
2022-09-17T02:50:41.564Z,97589.80
2022-09-17T02:54:05.983Z,97582.40
2022-09-17T02:57:25.894Z,97586.60
2022-09-17T03:00:34.244Z,97587.60
2022-09-17T03:03:47.387Z,97581.60
2022-09-17T03:06:56.758Z,97581.00
2022-09-17T03:10:04.772Z,97575.20
2022-09-17T03:13:12.940Z,97566.80
2022-09-17T03:16:20.978Z,97556.00
2022-09-17T03:19:29.090Z,97553.20
2022-09-17T03:22:37.475Z,97554.80
2022-09-17T03:25:45.845Z,97549.20
2022-09-17T03:28:53.950Z,97546.20
2022-09-17T03:32:02.290Z,97531.20
2022-09-17T03:35:11.299Z,97524.00
2022-09-17T03:38:20.015Z,97513.00
2022-09-17T03:41:29.150Z,97507.60
2022-09-17T03:44:36.904Z,97504.60
2022-09-17T03:47:45.193Z,97507.20
2022-09-17T03:50:54.206Z,97514.00
2022-09-17T03:54:02.239Z,97528.80
2022-09-17T03:57:10.723Z,97524.80
2022-09-17T04:00:19.596Z,97534.60
2022-09-17T04:03:28.609Z,97538.00
2022-09-17T04:06:37.094Z,97538.40
2022-09-17T04:09:45.325Z,97532.80
2022-09-17T04:12:53.146Z,97534.80
2022-09-17T04:16:01.325Z,97533.60
2022-09-17T04:19:09.529Z,97538.40
2022-09-17T04:22:17.307Z,97523.40
2022-09-17T04:25:25.449Z,97514.40
2022-09-17T04:28:33.871Z,97507.60
2022-09-17T04:31:41.796Z,97515.00
2022-09-17T04:34:50.319Z,97515.60
2022-09-17T04:37:59.887Z,97520.20
2022-09-17T04:41:09.504Z,97518.60
2022-09-17T04:44:17.601Z,97515.80
2022-09-17T04:47:25.518Z,97506.80
2022-09-17T04:50:33.593Z,97517.00
2022-09-17T04:53:42.771Z,97496.00
2022-09-17T04:56:50.824Z,97495.40
2022-09-17T04:59:58.672Z,97489.60
2022-09-17T05:03:06.801Z,97494.00
2022-09-17T05:06:14.782Z,97499.40
2022-09-17T05:09:24.121Z,97498.00
2022-09-17T05:12:34.466Z,97502.60
2022-09-17T05:15:42.471Z,97518.20
2022-09-17T05:18:51.821Z,97528.80
2022-09-17T05:21:59.664Z,97540.60
2022-09-17T05:25:08.627Z,97533.60
2022-09-17T05:28:17.056Z,97534.60
2022-09-17T05:31:25.329Z,97533.80
2022-09-17T05:34:34.145Z,97534.60
2022-09-17T05:37:42.397Z,97530.80
2022-09-17T05:40:50.770Z,97529.60
2022-09-17T05:44:00.148Z,97535.40
2022-09-17T05:47:08.596Z,97543.40
2022-09-17T05:50:16.667Z,97552.40
2022-09-17T05:53:25.141Z,97564.00
2022-09-17T05:56:34.066Z,97568.40
2022-09-17T05:59:42.236Z,97558.00
2022-09-17T06:02:55.497Z,97559.00
2022-09-17T06:06:04.814Z,97548.20
2022-09-17T06:09:13.999Z,97549.00
2022-09-17T06:12:22.099Z,97546.00
2022-09-17T06:15:30.580Z,97561.60
2022-09-17T06:18:38.480Z,97568.80
2022-09-17T06:21:48.197Z,97561.40
2022-09-17T06:24:56.252Z,97551.80
2022-09-17T06:28:07.154Z,97565.60
2022-09-17T06:31:16.325Z,97571.40
2022-09-17T06:34:24.404Z,97566.60
2022-09-17T06:37:36.366Z,97576.40
2022-09-17T06:40:45.083Z,97579.00
2022-09-17T06:43:55.368Z,97586.60
2022-09-17T06:47:03.264Z,97596.00
2022-09-17T06:50:12.766Z,97598.60
2022-09-17T06:53:21.009Z,97608.00
2022-09-17T06:56:28.812Z,97603.80
2022-09-17T06:59:36.783Z,97596.00
2022-09-17T07:02:45.334Z,97594.60
2022-09-17T07:05:53.972Z,97593.80
2022-09-17T07:09:02.672Z,97590.20
2022-09-17T07:12:14.301Z,97585.00
2022-09-17T07:15:22.681Z,97572.60
2022-09-17T07:18:31.315Z,97572.20
2022-09-17T07:21:39.316Z,97577.80
2022-09-17T07:24:48.067Z,97584.80
2022-09-17T07:27:56.690Z,97566.00
2022-09-17T07:31:12.466Z,97553.00
2022-09-17T07:34:23.300Z,97546.60
2022-09-17T07:37:36.130Z,97564.80
2022-09-17T07:40:44.380Z,97588.00
2022-09-17T07:43:55.958Z,97592.20
2022-09-17T07:47:03.794Z,97588.00
2022-09-17T07:50:13.679Z,97589.00
2022-09-17T07:53:23.701Z,97590.00
2022-09-17T07:56:32.427Z,97596.40
2022-09-17T07:59:40.498Z,97597.40
2022-09-17T08:02:56.501Z,97609.80
2022-09-17T08:06:12.190Z,97617.60
2022-09-17T08:09:21.315Z,97617.20
2022-09-17T08:12:29.795Z,97624.20
2022-09-17T08:15:37.659Z,97634.20
2022-09-17T08:18:47.412Z,97647.80
2022-09-17T08:21:55.411Z,97648.60
2022-09-17T08:25:04.547Z,97654.40
2022-09-17T08:28:13.045Z,97656.60
2022-09-17T08:31:24.368Z,97662.60
2022-09-17T08:34:32.362Z,97660.60
2022-09-17T08:37:40.563Z,97647.60
2022-09-17T08:41:06.868Z,97645.80
2022-09-17T08:44:28.880Z,97635.40
2022-09-17T08:47:46.047Z,97628.40
2022-09-17T08:51:00.612Z,97620.20
2022-09-17T08:54:19.777Z,97604.80
2022-09-17T08:58:38.454Z,97593.60
2022-09-17T09:01:58.111Z,97597.40
2022-09-17T09:05:15.749Z,97612.60
2022-09-17T09:08:31.775Z,97622.00
2022-09-17T09:11:42.809Z,97629.80
2022-09-17T09:14:59.862Z,97629.20
2022-09-17T09:18:19.769Z,97627.20
2022-09-17T09:21:32.340Z,97629.00
2022-09-17T09:24:54.883Z,97633.40
2022-09-17T09:28:18.077Z,97631.80
2022-09-17T09:32:03.456Z,97627.60
2022-09-17T09:35:23.980Z,97629.60
2022-09-17T09:38:40.496Z,97622.80
2022-09-17T09:41:57.484Z,97628.20
2022-09-17T09:45:17.850Z,97633.60
2022-09-17T09:48:39.991Z,97638.40
2022-09-17T09:52:03.487Z,97636.20
2022-09-17T09:55:37.226Z,97635.20
2022-09-17T09:58:45.836Z,97637.00
2022-09-17T10:01:55.239Z,97633.00
2022-09-17T10:05:14.605Z,97635.80
2022-09-17T10:08:22.750Z,97630.00
2022-09-17T10:11:34.956Z,97630.40
2022-09-17T10:14:45.796Z,97625.40
2022-09-17T10:18:17.108Z,97624.80
2022-09-17T10:21:34.311Z,97636.00
2022-09-17T10:24:43.645Z,97621.00
2022-09-17T10:27:55.236Z,97604.40
2022-09-17T10:31:10.929Z,97591.40
2022-09-17T10:34:29.193Z,97580.60
2022-09-17T10:37:49.355Z,97579.80
2022-09-17T10:41:19.562Z,97584.60
2022-09-17T10:44:31.717Z,97599.40
2022-09-17T10:47:45.530Z,97603.20
2022-09-17T10:50:57.861Z,97599.40
2022-09-17T10:54:50.920Z,97571.40
2022-09-17T10:58:40.417Z,97542.00
2022-09-17T11:02:07.210Z,97537.40
2022-09-17T11:05:41.764Z,97539.00
2022-09-17T11:09:02.884Z,97547.60
2022-09-17T11:12:38.455Z,97552.00
2022-09-17T11:16:07.885Z,97548.40
2022-09-17T11:19:36.637Z,97557.40
2022-09-17T11:23:00.502Z,97555.00
2022-09-17T11:26:19.301Z,97564.20
2022-09-17T11:30:04.775Z,97565.20
2022-09-17T11:33:41.753Z,97565.20
2022-09-17T11:37:00.714Z,97572.00
2022-09-17T11:40:22.662Z,97570.60
2022-09-17T11:43:35.717Z,97553.60
2022-09-17T11:46:51.536Z,97547.80
2022-09-17T11:50:06.341Z,97543.80
2022-09-17T11:53:23.852Z,97535.80
2022-09-17T11:56:37.411Z,97536.00
2022-09-17T11:59:56.983Z,97519.60
2022-09-17T12:03:18.173Z,97494.80
2022-09-17T12:06:42.922Z,97493.60
2022-09-17T12:10:01.173Z,97493.80
2022-09-17T12:13:28.407Z,97496.40
2022-09-17T12:16:45.559Z,97489.40
2022-09-17T12:20:04.115Z,97466.80
2022-09-17T12:23:21.253Z,97464.80
2022-09-17T12:27:01.373Z,97455.80
2022-09-17T12:30:22.567Z,97444.00
2022-09-17T12:33:39.410Z,97454.60
2022-09-17T12:36:57.472Z,97448.60
2022-09-17T12:40:29.031Z,97439.20
2022-09-17T12:44:06.709Z,97429.80
2022-09-17T12:48:16.965Z,97421.80
2022-09-17T12:52:01.333Z,97407.40
2022-09-17T12:55:41.178Z,97408.20
2022-09-17T12:59:27.223Z,97429.40
2022-09-17T13:03:13.087Z,97456.60
2022-09-17T13:07:27.950Z,97459.80
2022-09-17T13:11:15.891Z,97467.60
2022-09-17T13:14:37.093Z,97460.80
2022-09-17T13:18:12.864Z,97454.20
2022-09-17T13:21:31.970Z,97465.20
2022-09-17T13:24:43.863Z,97452.80
2022-09-17T13:28:08.101Z,97462.20
2022-09-17T13:31:20.823Z,97456.40
2022-09-17T13:34:36.703Z,97454.00
2022-09-17T13:37:46.853Z,97440.80
2022-09-17T13:41:14.984Z,97429.80
2022-09-17T13:44:26.453Z,97423.40
2022-09-17T13:47:38.325Z,97417.00
2022-09-17T13:50:48.110Z,97405.60
2022-09-17T13:53:59.008Z,97414.60
2022-09-17T13:57:23.791Z,97431.00
2022-09-17T14:00:57.768Z,97432.20
2022-09-17T14:04:35.960Z,97417.60
2022-09-17T14:08:13.649Z,97404.80
2022-09-17T14:11:51.335Z,97411.00
2022-09-17T14:15:07.287Z,97409.60
2022-09-17T14:19:00.494Z,97397.20
2022-09-17T14:22:24.983Z,97396.80
2022-09-17T14:25:48.129Z,97410.80
2022-09-17T14:29:08.946Z,97423.20
2022-09-17T14:32:26.027Z,97428.20
2022-09-17T14:35:41.369Z,97435.40
2022-09-17T14:38:53.021Z,97438.40
2022-09-17T14:42:01.844Z,97444.20
2022-09-17T14:45:19.831Z,97453.60
2022-09-17T14:48:37.165Z,97455.80
2022-09-17T14:51:46.268Z,97450.20
2022-09-17T14:55:17.120Z,97441.80
2022-09-17T14:58:37.834Z,97435.80
2022-09-17T15:01:51.594Z,97436.20
2022-09-17T15:05:00.323Z,97435.60
2022-09-17T15:08:21.304Z,97434.20
2022-09-17T15:11:41.226Z,97430.00
2022-09-17T15:14:51.876Z,97435.20
2022-09-17T15:18:01.168Z,97436.40
2022-09-17T15:21:24.580Z,97439.60
2022-09-17T15:24:42.749Z,97436.20
2022-09-17T15:27:52.795Z,97435.20
2022-09-17T15:31:01.129Z,97429.20
2022-09-17T15:34:12.483Z,97421.20
2022-09-17T15:37:28.623Z,97415.20
2022-09-17T15:40:41.130Z,97412.80
2022-09-17T15:43:51.080Z,97397.20
2022-09-17T15:46:57.896Z,97397.80
2022-09-17T15:50:24.630Z,97396.00
2022-09-17T15:53:34.846Z,97383.20
2022-09-17T15:56:44.748Z,97374.00
2022-09-17T15:59:51.534Z,97378.40
2022-09-17T16:02:59.409Z,97376.60
2022-09-17T16:06:40.529Z,97390.20
2022-09-17T16:09:53.075Z,97396.20
2022-09-17T16:13:01.015Z,97394.40
2022-09-17T16:16:14.247Z,97389.80
2022-09-17T16:19:22.554Z,97383.80
2022-09-17T16:22:31.996Z,97381.40
2022-09-17T16:25:42.100Z,97374.60
2022-09-17T16:28:55.119Z,97374.80
2022-09-17T16:32:03.473Z,97383.40
2022-09-17T16:35:17.428Z,97377.20
2022-09-17T16:38:26.601Z,97357.60
2022-09-17T16:41:34.684Z,97332.20
2022-09-17T16:44:43.551Z,97333.40
2022-09-17T16:47:53.118Z,97357.20
2022-09-17T16:51:01.647Z,97354.40
2022-09-17T16:54:10.407Z,97365.00
2022-09-17T16:57:18.759Z,97372.20
2022-09-17T17:00:27.893Z,97377.60
2022-09-17T17:03:36.414Z,97369.80
2022-09-17T17:06:45.029Z,97364.20
2022-09-17T17:09:53.106Z,97353.20
2022-09-17T17:13:01.005Z,97356.00
2022-09-17T17:16:14.224Z,97372.00
2022-09-17T17:19:25.421Z,97386.20
2022-09-17T17:22:33.644Z,97367.00
2022-09-17T17:25:41.745Z,97360.00
2022-09-17T17:28:49.818Z,97355.80
2022-09-17T17:31:57.996Z,97348.60
2022-09-17T17:35:07.846Z,97347.80
2022-09-17T17:38:14.049Z,97354.40
2022-09-17T17:41:26.024Z,97353.40
2022-09-17T17:44:34.361Z,97367.60
2022-09-17T17:47:43.122Z,97363.40
2022-09-17T17:50:56.387Z,97373.40
2022-09-17T17:54:05.397Z,97383.80
2022-09-17T17:57:13.836Z,97387.80
2022-09-17T18:00:23.199Z,97388.40
2022-09-17T18:03:31.274Z,97401.40
2022-09-17T18:06:46.066Z,97406.60
2022-09-17T18:09:55.071Z,97397.60
2022-09-17T18:13:04.050Z,97414.20
2022-09-17T18:16:15.621Z,97440.80
2022-09-17T18:19:24.367Z,97440.00
2022-09-17T18:22:33.295Z,97436.40
2022-09-17T18:25:41.952Z,97428.60
2022-09-17T18:28:51.601Z,97432.00
2022-09-17T18:32:00.172Z,97425.40
2022-09-17T18:35:09.080Z,97417.60
2022-09-17T18:38:19.541Z,97419.00
2022-09-17T18:41:27.598Z,97427.20
2022-09-17T18:44:36.511Z,97428.80
2022-09-17T18:47:45.085Z,97436.60
2022-09-17T18:51:03.011Z,97436.00
2022-09-17T18:54:13.001Z,97433.40
2022-09-17T18:57:20.983Z,97431.60
2022-09-17T19:00:28.936Z,97430.80
2022-09-17T19:03:37.811Z,97435.40
2022-09-17T19:06:46.125Z,97429.80
2022-09-17T19:09:54.875Z,97425.00
2022-09-17T19:13:03.993Z,97424.60
2022-09-17T19:16:15.151Z,97419.20
2022-09-17T19:19:23.898Z,97418.40
2022-09-17T19:22:34.057Z,97423.20
2022-09-17T19:25:42.530Z,97423.80
2022-09-17T19:28:55.018Z,97425.60
2022-09-17T19:32:03.630Z,97436.20
2022-09-17T19:35:13.488Z,97446.40
2022-09-17T19:38:21.769Z,97454.60
2022-09-17T19:41:32.581Z,97459.80
2022-09-17T19:44:41.393Z,97459.20
2022-09-17T19:47:51.921Z,97458.00
2022-09-17T19:51:02.330Z,97451.20
2022-09-17T19:54:11.796Z,97451.60
2022-09-17T19:57:20.721Z,97444.40
2022-09-17T20:00:30.116Z,97452.00
2022-09-17T20:03:39.191Z,97454.00
2022-09-17T20:06:48.130Z,97452.40
2022-09-17T20:09:56.424Z,97453.60
2022-09-17T20:13:04.909Z,97452.20
2022-09-17T20:16:16.385Z,97455.00
2022-09-17T20:19:25.045Z,97456.80
2022-09-17T20:22:32.917Z,97457.80
2022-09-17T20:25:41.592Z,97461.00
2022-09-17T20:28:51.394Z,97457.80
2022-09-17T20:31:58.190Z,97460.80
2022-09-17T20:35:07.242Z,97455.40
2022-09-17T20:41:44.780Z,97458.20
2022-09-17T20:44:53.586Z,97463.20
2022-09-17T20:48:03.109Z,97468.80
2022-09-17T20:51:15.049Z,97475.00
2022-09-17T20:54:23.824Z,97470.60
2022-09-17T20:57:33.885Z,97475.20
2022-09-17T21:00:43.999Z,97477.80
2022-09-17T21:03:55.332Z,97476.80
2022-09-17T21:07:03.815Z,97479.40
2022-09-17T21:10:13.731Z,97484.20
2022-09-17T21:13:20.152Z,97478.80
2022-09-17T21:16:28.517Z,97489.20
2022-09-17T21:19:37.053Z,97496.00
2022-09-17T21:22:46.137Z,97494.80
2022-09-17T21:25:54.246Z,97498.00
2022-09-17T21:29:03.094Z,97489.60
2022-09-17T21:32:11.649Z,97502.00
2022-09-17T21:35:19.933Z,97507.60
2022-09-17T21:38:27.917Z,97506.00
2022-09-17T21:41:42.105Z,97505.00
2022-09-17T21:44:51.007Z,97520.00
2022-09-17T21:47:59.766Z,97521.40
2022-09-17T21:51:11.201Z,97527.60
2022-09-17T21:54:20.440Z,97529.40
2022-09-17T21:57:28.900Z,97530.00
2022-09-17T22:00:38.588Z,97528.40
2022-09-17T22:03:47.702Z,97531.20
2022-09-17T22:06:56.261Z,97526.00
2022-09-17T22:10:04.302Z,97532.60
2022-09-17T22:13:12.583Z,97530.80
2022-09-17T22:16:20.798Z,97526.60
2022-09-17T22:19:29.585Z,97531.00
2022-09-17T22:22:37.532Z,97535.20
2022-09-17T22:25:46.148Z,97538.20
2022-09-17T22:28:55.441Z,97540.20
2022-09-17T22:32:18.473Z,97545.60
2022-09-17T22:35:37.226Z,97546.40
2022-09-17T22:38:49.774Z,97543.80
2022-09-17T22:41:58.056Z,97545.80
2022-09-17T22:45:12.225Z,97541.40
2022-09-17T22:48:20.357Z,97542.20
2022-09-17T22:51:30.425Z,97543.20
2022-09-17T22:54:41.119Z,97543.60
2022-09-17T22:57:49.559Z,97549.20
2022-09-17T23:00:59.547Z,97549.60
2022-09-17T23:04:07.377Z,97548.20
2022-09-17T23:07:16.411Z,97550.20
2022-09-17T23:10:24.896Z,97552.20
2022-09-17T23:13:33.782Z,97554.20
2022-09-17T23:16:45.015Z,97556.40
2022-09-17T23:19:53.083Z,97561.20
2022-09-17T23:23:01.341Z,97561.20
2022-09-17T23:26:13.507Z,97567.00
2022-09-17T23:29:21.850Z,97564.60
2022-09-17T23:32:31.499Z,97570.40
2022-09-17T23:35:39.819Z,97573.20
2022-09-17T23:38:51.722Z,97566.20
2022-09-17T23:42:01.705Z,97569.40
2022-09-17T23:45:09.905Z,97573.00
2022-09-17T23:48:18.471Z,97568.60
2022-09-17T23:51:29.746Z,97571.00
2022-09-17T23:54:38.376Z,97574.40
2022-09-17T23:57:47.600Z,97573.00
